MSC Ingrid — HOHA — position and weather

sailwx.info

Track history (hours):
 
Tides and Currents Weather Stations Pressure Air Temp Water Temp Dewpoint Dewpoint Depression Visibility Wind Speed Wind Dir Waves Ship Positions

MSC Ingrid

Last reported at 2017-Oct-19 01:09 UTC. Time now 2017-Oct-19 11:09 UTC.
Position N 39°11' E 025°17'.

Length 294 m; draft 9.2 m.

Type: Ship (hazmat cat A). MMSI: 354505000.

Date/timePositionNaut miles runAvg speedWind from/ knotsBaromVisibWave heightAir tempDewpointWater temp
2017-Oct-19 01:09N 39°11' E 025°17'2019.2
2017-Oct-19 00:06N 39°21' E 024°53'219.4
2017-Oct-19 00:00N 39°22' E 024°51'1219.4
2017-Oct-18 23:22N 39°27' E 024°37'2419.5
2017-Oct-18 22:09N 39°38' E 024°09'319.8
2017-Oct-18 22:00N 39°39' E 024°06'  
2017-Oct-13 08:10N 39°46' E 023°35'1317.7
2017-Oct-13 07:26N 39°42' E 023°50'717.2
2017-Oct-13 07:01N 39°40' E 023°59'918.2
2017-Oct-13 06:30N 39°37' E 024°11'4618.2
2017-Oct-13 03:57N 38°60' E 024°47'817.5
2017-Oct-13 03:30N 38°52' E 024°49'6017.4
2017-Oct-13 00:03N 37°54' E 024°33'218.6
2017-Oct-12 23:56N 37°53' E 024°30'2317.9
2017-Oct-12 22:39N 37°37' E 024°10'515.7
2017-Oct-12 22:21N 37°35' E 024°04'618.8
2017-Oct-12 22:00N 37°37' E 023°56'918.7
2017-Oct-12 21:31N 37°38' E 023°44'918.4
2017-Oct-12 21:01N 37°46' E 023°39'816.6
2017-Oct-12 20:31N 37°54' E 023°36'3 6.8
2017-Oct-12 20:00N 37°57' E 023°36'0 0.0
2017-Oct-12 19:30N 37°57' E 023°36'0 0.0
2017-Oct-12 18:58N 37°57' E 023°36'0 0.0
2017-Oct-12 18:28N 37°57' E 023°36'0 0.0
2017-Oct-12 17:58N 37°57' E 023°36'0 0.0
2017-Oct-12 17:28N 37°57' E 023°36'0 0.0
2017-Oct-12 16:58N 37°57' E 023°36'0 0.0
2017-Oct-12 16:28N 37°57' E 023°36'0 0.0
2017-Oct-12 15:58N 37°57' E 023°36'0 0.0
2017-Oct-12 15:28N 37°57' E 023°36'0 0.0
2017-Oct-12 14:58N 37°57' E 023°36'0 0.3
2017-Oct-12 14:28N 37°57' E 023°36'0 0.3
2017-Oct-12 13:58N 37°57' E 023°36'0 0.0
2017-Oct-12 13:31N 37°57' E 023°36'0 0.0
2017-Oct-12 13:01N 37°57' E 023°36'0 0.0
2017-Oct-12 12:30N 37°57' E 023°36'0 0.0
2017-Oct-12 12:00N 37°57' E 023°36'0 0.0
2017-Oct-12 11:30N 37°57' E 023°36'0 0.0
2017-Oct-12 11:00N 37°57' E 023°36'0 0.0
2017-Oct-12 10:30N 37°57' E 023°36'0 0.0
2017-Oct-12 10:00N 37°57' E 023°36'0 0.0
2017-Oct-12 09:30N 37°57' E 023°36'0 0.0
2017-Oct-12 09:00N 37°57' E 023°36'0 0.0
2017-Oct-12 08:30N 37°57' E 023°36'0 0.0
2017-Oct-12 08:00N 37°57' E 023°36'0 0.0
2017-Oct-12 07:30N 37°57' E 023°36'0 0.0
2017-Oct-12 07:00N 37°57' E 023°36'0 0.0
2017-Oct-12 06:30N 37°57' E 023°36'0 0.0
2017-Oct-12 06:00N 37°57' E 023°36'0 0.0
2017-Oct-12 05:30N 37°57' E 023°36'0 0.0
2017-Oct-12 05:00N 37°57' E 023°36'0 0.1
2017-Oct-12 04:30N 37°57' E 023°36'0 0.0
2017-Oct-12 04:00N 37°57' E 023°36'0 0.0
2017-Oct-12 03:30N 37°57' E 023°36'0 0.0
2017-Oct-12 03:00N 37°57' E 023°36'0 0.0
2017-Oct-12 02:30N 37°57' E 023°36'0 0.0
2017-Oct-12 02:00N 37°57' E 023°36'0 0.0
2017-Oct-12 01:30N 37°57' E 023°36'0 0.0
2017-Oct-12 01:00N 37°57' E 023°36'0 0.0
2017-Oct-12 00:30N 37°57' E 023°36'0 0.0
2017-Oct-12 00:01N 37°57' E 023°36'1 1.7
2017-Oct-11 23:31N 37°56' E 023°36'2 3.4
2017-Oct-11 23:00N 37°55' E 023°37'1 1.4
2017-Oct-11 22:30N 37°54' E 023°37'611.6
2017-Oct-11 22:01N 37°49' E 023°40'35916.0
2017-Oct-10 23:29N 37°48' E 016°06'1120.7
2017-Oct-10 22:57N 37°50' E 015°52'920.8
2017-Oct-10 22:30N 37°53' E 015°41'918.1
2017-Oct-10 22:01N 37°60' E 015°34'918.8
2017-Oct-10 21:30N 38°09' E 015°35'612.5
2017-Oct-10 21:00N 38°15' E 015°38'713.4
2017-Oct-10 20:30N 38°20' E 015°43'815.7
2017-Oct-10 20:01N 38°27' E 015°50'4 7.4
2017-Oct-10 19:31N 38°27' E 015°54'0 0.6
2017-Oct-10 19:01N 38°27' E 015°54'0 0.0
2017-Oct-10 08:02N 38°27' E 015°54'0 0.0
2017-Oct-10 07:53N 38°27' E 015°54'0 0.0
2017-Oct-10 07:14N 38°27' E 015°54'0 0.0
2017-Oct-10 06:56N 38°27' E 015°54'0 0.1
2017-Oct-10 06:26N 38°27' E 015°54'0 0.1
2017-Oct-10 05:53N 38°27' E 015°54'0 0.0
2017-Oct-10 05:23N 38°27' E 015°54'0 0.0
2017-Oct-10 04:56N 38°27' E 015°54'0 0.0
2017-Oct-10 04:29N 38°27' E 015°54'0 0.0
2017-Oct-10 03:50N 38°27' E 015°54'0 0.0
2017-Oct-10 03:20N 38°27' E 015°54'0 0.0
2017-Oct-10 02:59N 38°27' E 015°54'0 0.0
2017-Oct-10 02:29N 38°27' E 015°54'0 0.0
2017-Oct-10 01:53N 38°27' E 015°54'0 0.0
2017-Oct-10 01:26N 38°27' E 015°54'0 0.0
2017-Oct-10 00:59N 38°27' E 015°54'0 0.0
2017-Oct-10 00:29N 38°27' E 015°54'0 0.0
2017-Oct-09 23:59N 38°27' E 015°54'0 0.0
2017-Oct-09 23:26N 38°27' E 015°54'0 0.0
2017-Oct-09 22:59N 38°27' E 015°54'0 0.0
2017-Oct-09 22:29N 38°27' E 015°54'0 0.0
2017-Oct-09 21:59N 38°27' E 015°54'0 0.0
2017-Oct-09 21:29N 38°27' E 015°54'0 0.0
2017-Oct-09 20:59N 38°27' E 015°54'0 0.0
2017-Oct-09 20:29N 38°27' E 015°54'0 0.0
2017-Oct-09 19:59N 38°27' E 015°54'0 0.0
2017-Oct-09 19:23N 38°27' E 015°54'0 0.0
2017-Oct-09 18:56N 38°27' E 015°54'0 0.0
2017-Oct-09 18:29N 38°27' E 015°54'0 0.0
2017-Oct-09 17:59N 38°27' E 015°54'0 0.0
2017-Oct-09 17:26N 38°27' E 015°54'0 0.0
2017-Oct-09 16:59N 38°27' E 015°54'0 0.0
2017-Oct-09 16:14N 38°27' E 015°54'0 0.0
2017-Oct-09 15:59N 38°27' E 015°54'0 0.0
2017-Oct-09 15:29N 38°27' E 015°54'0 0.0
2017-Oct-09 14:59N 38°27' E 015°54'0 0.0
2017-Oct-09 14:29N 38°27' E 015°54'0 0.0
2017-Oct-09 13:56N 38°27' E 015°54'0 0.0
2017-Oct-09 13:31N 38°27' E 015°54'1 1.9
2017-Oct-09 13:00N 38°27' E 015°54'2 4.5
2017-Oct-09 12:30N 38°28' E 015°51'1 2.8
2017-Oct-09 12:00N 38°29' E 015°50'4 7.0
2017-Oct-09 11:30N 38°31' E 015°46'0 0.2
2017-Oct-09 11:00N 38°31' E 015°46'0 0.4
2017-Oct-09 10:30N 38°31' E 015°46'0 0.2
2017-Oct-09 10:00N 38°30' E 015°46'0 0.4
2017-Oct-09 09:30N 38°30' E 015°46'0 0.4
2017-Oct-09 09:00N 38°30' E 015°46'1 1.3
2017-Oct-09 08:30N 38°30' E 015°46'2 5.0
2017-Oct-09 08:00N 38°29' E 015°49'3 5.7
2017-Oct-09 07:30N 38°26' E 015°47'815.1
2017-Oct-09 07:00N 38°25' E 015°38'816.7
2017-Oct-09 06:30N 38°23' E 015°28'918.0
2017-Oct-09 06:00N 38°22' E 015°16'918.1
2017-Oct-09 05:29N 38°20' E 015°05'917.7
2017-Oct-09 05:00N 38°19' E 014°54'917.7
2017-Oct-09 04:30N 38°20' E 014°42'917.9
2017-Oct-09 04:00N 38°21' E 014°31'1318.2
2017-Oct-09 03:18N 38°22' E 014°15'518.0
2017-Oct-09 03:00N 38°22' E 014°08'918.5
2017-Oct-09 02:30N 38°23' E 013°56'1019.6
2017-Oct-09 01:59N 38°24' E 013°43'1020.0
2017-Oct-09 01:29N 38°25' E 013°31'  
Track history (hours):
 
Tides and Currents Weather Stations Pressure Air Temp Water Temp Dewpoint Dewpoint Depression Visibility Wind Speed Wind Dir Waves Ship Positions

MSC Ingrid

Last reported at 2017-Oct-19 01:09 UTC. Time now 2017-Oct-19 11:09 UTC.
Position N 39°11' E 025°17'.

Length 294 m; draft 9.2 m.

Type: Ship (hazmat cat A). MMSI: 354505000.

Date/timePositionNaut miles runAvg speedWind from/ knotsBaromVisibWave heightAir tempDewpointWater temp
2017-Oct-19 01:09N 39°11' E 025°17'2019.2
2017-Oct-19 00:06N 39°21' E 024°53'219.4
2017-Oct-19 00:00N 39°22' E 024°51'1219.4
2017-Oct-18 23:22N 39°27' E 024°37'2419.5
2017-Oct-18 22:09N 39°38' E 024°09'319.8
2017-Oct-18 22:00N 39°39' E 024°06'  
2017-Oct-13 08:10N 39°46' E 023°35'1317.7
2017-Oct-13 07:26N 39°42' E 023°50'717.2
2017-Oct-13 07:01N 39°40' E 023°59'918.2
2017-Oct-13 06:30N 39°37' E 024°11'4618.2
2017-Oct-13 03:57N 38°60' E 024°47'817.5
2017-Oct-13 03:30N 38°52' E 024°49'6017.4
2017-Oct-13 00:03N 37°54' E 024°33'218.6
2017-Oct-12 23:56N 37°53' E 024°30'2317.9
2017-Oct-12 22:39N 37°37' E 024°10'515.7
2017-Oct-12 22:21N 37°35' E 024°04'618.8
2017-Oct-12 22:00N 37°37' E 023°56'918.7
2017-Oct-12 21:31N 37°38' E 023°44'918.4
2017-Oct-12 21:01N 37°46' E 023°39'816.6
2017-Oct-12 20:31N 37°54' E 023°36'3 6.8
2017-Oct-12 20:00N 37°57' E 023°36'0 0.0
2017-Oct-12 19:30N 37°57' E 023°36'0 0.0
2017-Oct-12 18:58N 37°57' E 023°36'0 0.0
2017-Oct-12 18:28N 37°57' E 023°36'0 0.0
2017-Oct-12 17:58N 37°57' E 023°36'0 0.0
2017-Oct-12 17:28N 37°57' E 023°36'0 0.0
2017-Oct-12 16:58N 37°57' E 023°36'0 0.0
2017-Oct-12 16:28N 37°57' E 023°36'0 0.0
2017-Oct-12 15:58N 37°57' E 023°36'0 0.0
2017-Oct-12 15:28N 37°57' E 023°36'0 0.0
2017-Oct-12 14:58N 37°57' E 023°36'0 0.3
2017-Oct-12 14:28N 37°57' E 023°36'0 0.3
2017-Oct-12 13:58N 37°57' E 023°36'0 0.0
2017-Oct-12 13:31N 37°57' E 023°36'0 0.0
2017-Oct-12 13:01N 37°57' E 023°36'0 0.0
2017-Oct-12 12:30N 37°57' E 023°36'0 0.0
2017-Oct-12 12:00N 37°57' E 023°36'0 0.0
2017-Oct-12 11:30N 37°57' E 023°36'0 0.0
2017-Oct-12 11:00N 37°57' E 023°36'0 0.0
2017-Oct-12 10:30N 37°57' E 023°36'0 0.0
2017-Oct-12 10:00N 37°57' E 023°36'0 0.0
2017-Oct-12 09:30N 37°57' E 023°36'0 0.0
2017-Oct-12 09:00N 37°57' E 023°36'0 0.0
2017-Oct-12 08:30N 37°57' E 023°36'0 0.0
2017-Oct-12 08:00N 37°57' E 023°36'0 0.0
2017-Oct-12 07:30N 37°57' E 023°36'0 0.0
2017-Oct-12 07:00N 37°57' E 023°36'0 0.0
2017-Oct-12 06:30N 37°57' E 023°36'0 0.0
2017-Oct-12 06:00N 37°57' E 023°36'0 0.0
2017-Oct-12 05:30N 37°57' E 023°36'0 0.0
2017-Oct-12 05:00N 37°57' E 023°36'0 0.1
2017-Oct-12 04:30N 37°57' E 023°36'0 0.0
2017-Oct-12 04:00N 37°57' E 023°36'0 0.0
2017-Oct-12 03:30N 37°57' E 023°36'0 0.0
2017-Oct-12 03:00N 37°57' E 023°36'0 0.0
2017-Oct-12 02:30N 37°57' E 023°36'0 0.0
2017-Oct-12 02:00N 37°57' E 023°36'0 0.0
2017-Oct-12 01:30N 37°57' E 023°36'0 0.0
2017-Oct-12 01:00N 37°57' E 023°36'0 0.0
2017-Oct-12 00:30N 37°57' E 023°36'0 0.0
2017-Oct-12 00:01N 37°57' E 023°36'1 1.7
2017-Oct-11 23:31N 37°56' E 023°36'2 3.4
2017-Oct-11 23:00N 37°55' E 023°37'1 1.4
2017-Oct-11 22:30N 37°54' E 023°37'611.6
2017-Oct-11 22:01N 37°49' E 023°40'35916.0
2017-Oct-10 23:29N 37°48' E 016°06'1120.7
2017-Oct-10 22:57N 37°50' E 015°52'920.8
2017-Oct-10 22:30N 37°53' E 015°41'918.1
2017-Oct-10 22:01N 37°60' E 015°34'918.8
2017-Oct-10 21:30N 38°09' E 015°35'612.5
2017-Oct-10 21:00N 38°15' E 015°38'713.4
2017-Oct-10 20:30N 38°20' E 015°43'815.7
2017-Oct-10 20:01N 38°27' E 015°50'4 7.4
2017-Oct-10 19:31N 38°27' E 015°54'0 0.6
2017-Oct-10 19:01N 38°27' E 015°54'0 0.0
2017-Oct-10 08:02N 38°27' E 015°54'0 0.0
2017-Oct-10 07:53N 38°27' E 015°54'0 0.0
2017-Oct-10 07:14N 38°27' E 015°54'0 0.0
2017-Oct-10 06:56N 38°27' E 015°54'0 0.1
2017-Oct-10 06:26N 38°27' E 015°54'0 0.1
2017-Oct-10 05:53N 38°27' E 015°54'0 0.0
2017-Oct-10 05:23N 38°27' E 015°54'0 0.0
2017-Oct-10 04:56N 38°27' E 015°54'0 0.0
2017-Oct-10 04:29N 38°27' E 015°54'0 0.0
2017-Oct-10 03:50N 38°27' E 015°54'0 0.0
2017-Oct-10 03:20N 38°27' E 015°54'0 0.0
2017-Oct-10 02:59N 38°27' E 015°54'0 0.0
2017-Oct-10 02:29N 38°27' E 015°54'0 0.0
2017-Oct-10 01:53N 38°27' E 015°54'0 0.0
2017-Oct-10 01:26N 38°27' E 015°54'0 0.0
2017-Oct-10 00:59N 38°27' E 015°54'0 0.0
2017-Oct-10 00:29N 38°27' E 015°54'0 0.0
2017-Oct-09 23:59N 38°27' E 015°54'0 0.0
2017-Oct-09 23:26N 38°27' E 015°54'0 0.0
2017-Oct-09 22:59N 38°27' E 015°54'0 0.0
2017-Oct-09 22:29N 38°27' E 015°54'0 0.0
2017-Oct-09 21:59N 38°27' E 015°54'0 0.0
2017-Oct-09 21:29N 38°27' E 015°54'0 0.0
2017-Oct-09 20:59N 38°27' E 015°54'0 0.0
2017-Oct-09 20:29N 38°27' E 015°54'0 0.0
2017-Oct-09 19:59N 38°27' E 015°54'0 0.0
2017-Oct-09 19:23N 38°27' E 015°54'0 0.0
2017-Oct-09 18:56N 38°27' E 015°54'0 0.0
2017-Oct-09 18:29N 38°27' E 015°54'0 0.0
2017-Oct-09 17:59N 38°27' E 015°54'0 0.0
2017-Oct-09 17:26N 38°27' E 015°54'0 0.0
2017-Oct-09 16:59N 38°27' E 015°54'0 0.0
2017-Oct-09 16:14N 38°27' E 015°54'0 0.0
2017-Oct-09 15:59N 38°27' E 015°54'0 0.0
2017-Oct-09 15:29N 38°27' E 015°54'0 0.0
2017-Oct-09 14:59N 38°27' E 015°54'0 0.0
2017-Oct-09 14:29N 38°27' E 015°54'0 0.0
2017-Oct-09 13:56N 38°27' E 015°54'0 0.0
2017-Oct-09 13:31N 38°27' E 015°54'1 1.9
2017-Oct-09 13:00N 38°27' E 015°54'2 4.5
2017-Oct-09 12:30N 38°28' E 015°51'1 2.8
2017-Oct-09 12:00N 38°29' E 015°50'4 7.0
2017-Oct-09 11:30N 38°31' E 015°46'0 0.2
2017-Oct-09 11:00N 38°31' E 015°46'0 0.4
2017-Oct-09 10:30N 38°31' E 015°46'0 0.2
2017-Oct-09 10:00N 38°30' E 015°46'0 0.4
2017-Oct-09 09:30N 38°30' E 015°46'0 0.4
2017-Oct-09 09:00N 38°30' E 015°46'1 1.3
2017-Oct-09 08:30N 38°30' E 015°46'2 5.0
2017-Oct-09 08:00N 38°29' E 015°49'3 5.7
2017-Oct-09 07:30N 38°26' E 015°47'815.1
2017-Oct-09 07:00N 38°25' E 015°38'816.7
2017-Oct-09 06:30N 38°23' E 015°28'918.0
2017-Oct-09 06:00N 38°22' E 015°16'918.1
2017-Oct-09 05:29N 38°20' E 015°05'917.7
2017-Oct-09 05:00N 38°19' E 014°54'917.7
2017-Oct-09 04:30N 38°20' E 014°42'917.9
2017-Oct-09 04:00N 38°21' E 014°31'1318.2
2017-Oct-09 03:18N 38°22' E 014°15'518.0
2017-Oct-09 03:00N 38°22' E 014°08'918.5
2017-Oct-09 02:30N 38°23' E 013°56'1019.6
2017-Oct-09 01:59N 38°24' E 013°43'1020.0
2017-Oct-09 01:29N 38°25' E 013°31'  

Dump ship's entire track history